Time,TemperatureF,DewpointF,PressureIn,WindDirection,WindDirectionDegrees,WindSpeedMPH,WindSpeedGustMPH,Humidity,HourlyPrecipIn,Conditions,Clouds,dailyrainin,SolarRadiationWatts/m^2,SoftwareType,DateUTC
2013-09-21 00:01:00,63.5,53.5,29.86,South,184,1.0,1.0,70,0.00,,,0.00,0,Wunderground v.1.15,2013-09-21 04:01:00,
2013-09-21 00:02:00,63.5,53.5,29.86,SSE,165,1.0,1.0,70,0.00,,,0.00,0,Wunderground v.1.15,2013-09-21 04:02:00,
2013-09-21 00:03:00,63.5,53.5,29.86,SSE,165,1.0,1.0,70,0.00,,,0.00,0,Wunderground v.1.15,2013-09-21 04:03:00,
2013-09-21 00:06:00,63.7,53.7,29.86,SSE,165,1.0,1.0,70,0.00,,,0.00,0,Wunderground v.1.15,2013-09-21 04:06:00,
2013-09-21 00:11:00,63.9,53.5,29.86,South,179,0.0,0.0,69,0.00,,,0.00,0,Wunderground v.1.15,2013-09-21 04:11:00,
2013-09-21 00:17:00,64.0,53.2,29.85,SE,132,0.0,1.0,68,0.00,,,0.00,0,Wunderground v.1.15,2013-09-21 04:17:00,
2013-09-21 00:23:00,64.2,53.0,29.85,SE,132,0.0,0.0,67,0.00,,,0.00,0,Wunderground v.1.15,2013-09-21 04:23:00,
2013-09-21 00:29:00,64.3,53.1,29.85,SSW,198,0.0,4.0,67,0.00,,,0.00,0,Wunderground v.1.15,2013-09-21 04:29:00,
2013-09-21 00:35:00,64.5,53.3,29.85,SW,217,0.0,0.0,67,0.00,,,0.00,0,Wunderground v.1.15,2013-09-21 04:35:00,
2013-09-21 00:41:00,64.3,53.1,29.85,SW,217,0.0,0.0,67,0.00,,,0.00,0,Wunderground v.1.15,2013-09-21 04:41:00,
2013-09-21 00:47:00,64.3,53.1,29.86,South,170,0.0,0.0,67,0.00,,,0.00,0,Wunderground v.1.15,2013-09-21 04:47:00,
2013-09-21 00:52:00,64.2,53.4,29.86,South,170,0.0,0.0,68,0.00,,,0.00,0,Wunderground v.1.15,2013-09-21 04:52:00,
2013-09-21 00:58:00,64.0,53.2,29.86,SE,131,0.0,3.0,68,0.00,,,0.00,0,Wunderground v.1.15,2013-09-21 04:58:00,
2013-09-21 11:30:00,72.3,56.7,29.72,WNW,302,1.0,1.0,58,0.00,,,0.00,443,Wunderground v.1.15,2013-09-21 15:30:00,
2013-09-21 11:35:00,72.7,56.6,29.72,SSE,164,1.0,5.0,57,0.00,,,0.00,742,Wunderground v.1.15,2013-09-21 15:35:00,
2013-09-21 11:41:00,73.3,57.1,29.72,SE,132,0.0,5.0,57,0.00,,,0.00,670,Wunderground v.1.15,2013-09-21 15:41:00,
2013-09-21 11:46:00,73.7,56.0,29.71,SE,137,0.0,5.0,54,0.00,,,0.00,598,Wunderground v.1.15,2013-09-21 15:46:00,
2013-09-21 11:52:00,73.5,53.7,29.71,ESE,118,1.0,5.0,50,0.00,,,0.00,552,Wunderground v.1.15,2013-09-21 15:52:00,
2013-09-21 11:58:00,72.7,53.5,29.71,South,189,1.0,6.0,51,0.00,,,0.00,589,Wunderground v.1.15,2013-09-21 15:58:00,
2013-09-21 12:03:00,73.0,54.9,29.71,WSW,242,1.0,5.0,53,0.00,,,0.00,670,Wunderground v.1.15,2013-09-21 16:03:00,
2013-09-21 12:09:00,73.7,53.9,29.71,SSE,148,0.0,5.0,50,0.00,,,0.00,663,Wunderground v.1.15,2013-09-21 16:09:00,
2013-09-21 12:15:00,74.2,53.8,29.71,NNW,345,1.0,8.0,49,0.00,,,0.00,605,Wunderground v.1.15,2013-09-21 16:15:00,
2013-09-21 12:20:00,74.4,52.9,29.71,East,101,1.0,1.0,47,0.00,,,0.00,635,Wunderground v.1.15,2013-09-21 16:20:00,
2013-09-21 12:26:00,74.9,54.4,29.71,ESE,123,0.0,2.0,49,0.00,,,0.00,573,Wunderground v.1.15,2013-09-21 16:26:00,
2013-09-21 12:32:00,74.9,54.4,29.70,SW,223,0.0,2.0,49,0.00,,,0.00,636,Wunderground v.1.15,2013-09-21 16:32:00,
2013-09-21 12:37:00,74.9,55.0,29.70,South,184,0.0,2.0,50,0.00,,,0.00,652,Wunderground v.1.15,2013-09-21 16:37:00,
2013-09-21 12:43:00,75.3,54.8,29.70,SSE,156,1.0,3.0,49,0.00,,,0.00,793,Wunderground v.1.15,2013-09-21 16:43:00,
2013-09-21 12:49:00,75.6,54.5,29.69,SSE,147,1.0,3.0,48,0.00,,,0.00,677,Wunderground v.1.15,2013-09-21 16:49:00,
2013-09-21 12:54:00,75.8,52.3,29.69,WSW,258,1.0,13.0,44,0.00,,,0.00,619,Wunderground v.1.15,2013-09-21 16:54:00,
2013-09-21 13:00:00,75.4,52.0,29.68,SE,131,1.0,5.0,44,0.00,,,0.00,751,Wunderground v.1.15,2013-09-21 17:00:00,
2013-09-21 13:05:00,75.8,52.3,29.68,South,173,1.0,5.0,44,0.00,,,0.00,657,Wunderground v.1.15,2013-09-21 17:05:00,
2013-09-21 13:10:00,76.0,49.9,29.68,ESE,114,1.0,1.0,40,0.00,,,0.00,640,Wunderground v.1.15,2013-09-21 17:10:00,
2013-09-21 13:16:00,76.1,52.6,29.68,West,262,1.0,1.0,44,0.00,,,0.00,715,Wunderground v.1.15,2013-09-21 17:16:00,
2013-09-21 13:21:00,76.3,50.9,29.68,SSW,209,0.0,0.0,41,0.00,,,0.00,603,Wunderground v.1.15,2013-09-21 17:21:00,
2013-09-21 13:27:00,76.7,53.1,29.68,SSW,209,0.0,0.0,44,0.00,,,0.00,520,Wunderground v.1.15,2013-09-21 17:27:00,
2013-09-21 13:33:00,76.7,51.9,29.66,North,5,0.0,5.0,42,0.00,,,0.00,742,Wunderground v.1.15,2013-09-21 17:33:00,
2013-09-21 13:38:00,76.3,48.1,29.66,SE,139,1.0,5.0,37,0.00,,,0.00,779,Wunderground v.1.15,2013-09-21 17:38:00,
2013-09-21 13:44:00,76.3,50.9,29.66,ESE,117,1.0,4.0,41,0.00,,,0.00,747,Wunderground v.1.15,2013-09-21 17:44:00,
2013-09-21 13:50:00,77.0,50.8,29.66,SE,133,1.0,1.0,40,0.00,,,0.00,599,Wunderground v.1.15,2013-09-21 17:50:00,
2013-09-21 13:55:00,76.7,49.9,29.66,SSW,207,1.0,2.0,39,0.00,,,0.00,642,Wunderground v.1.15,2013-09-21 17:55:00,
2013-09-21 14:01:00,76.7,49.9,29.65,NE,43,1.0,1.0,39,0.00,,,0.00,624,Wunderground v.1.15,2013-09-21 18:01:00,
2013-09-21 14:07:00,76.8,50.0,29.65,NE,43,1.0,5.0,39,0.00,,,0.00,506,Wunderground v.1.15,2013-09-21 18:07:00,
2013-09-21 14:13:00,76.8,50.0,29.65,SE,145,0.0,1.0,39,0.00,,,0.00,503,Wunderground v.1.15,2013-09-21 18:13:00,
2013-09-21 14:19:00,76.3,48.8,29.65,ESE,114,1.0,1.0,38,0.00,,,0.00,643,Wunderground v.1.15,2013-09-21 18:19:00,
2013-09-21 14:24:00,76.1,50.7,29.65,North,4,1.0,2.0,41,0.00,,,0.00,403,Wunderground v.1.15,2013-09-21 18:24:00,
2013-09-21 14:30:00,75.8,49.1,29.64,East,79,2.0,2.0,39,0.00,,,0.00,628,Wunderground v.1.15,2013-09-21 18:30:00,
2013-09-21 14:35:00,76.3,51.5,29.64,SSW,209,1.0,5.0,42,0.00,,,0.00,629,Wunderground v.1.15,2013-09-21 18:35:00,
2013-09-21 14:41:00,76.7,52.5,29.64,SE,141,1.0,1.0,43,0.00,,,0.00,598,Wunderground v.1.15,2013-09-21 18:41:00,
2013-09-21 14:47:00,77.4,50.5,29.63,SSE,152,1.0,1.0,39,0.00,,,0.00,517,Wunderground v.1.15,2013-09-21 18:47:00,
2013-09-21 14:52:00,77.2,49.6,29.63,WNW,282,1.0,7.0,38,0.00,,,0.00,450,Wunderground v.1.15,2013-09-21 18:52:00,
2013-09-21 14:58:00,76.5,51.0,29.63,South,173,1.0,7.0,41,0.00,,,0.00,417,Wunderground v.1.15,2013-09-21 18:58:00,
2013-09-21 15:04:00,76.0,51.9,29.62,NE,49,1.0,1.0,43,0.00,,,0.00,450,Wunderground v.1.15,2013-09-21 19:04:00,
2013-09-21 15:09:00,75.6,50.2,29.62,SSE,157,1.0,5.0,41,0.00,,,0.00,510,Wunderground v.1.15,2013-09-21 19:09:00,
2013-09-21 15:14:00,75.4,52.0,29.62,ESE,122,2.0,6.0,44,0.00,,,0.00,492,Wunderground v.1.15,2013-09-21 19:14:00,
2013-09-21 15:20:00,75.4,52.6,29.62,South,174,1.0,1.0,45,0.00,,,0.00,371,Wunderground v.1.15,2013-09-21 19:20:00,
2013-09-21 15:26:00,75.6,53.9,29.62,ESE,114,1.0,1.0,47,0.00,,,0.00,316,Wunderground v.1.15,2013-09-21 19:26:00,
2013-09-21 15:31:00,75.3,54.8,29.62,SE,146,1.0,1.0,49,0.00,,,0.00,297,Wunderground v.1.15,2013-09-21 19:31:00,
2013-09-21 15:37:00,75.1,54.6,29.62,SSE,147,1.0,5.0,49,0.00,,,0.00,341,Wunderground v.1.15,2013-09-21 19:37:00,
2013-09-21 15:43:00,74.7,54.8,29.62,SSW,197,2.0,2.0,50,0.00,,,0.00,304,Wunderground v.1.15,2013-09-21 19:43:00,
2013-09-21 15:48:00,74.7,56.9,29.61,ENE,74,1.0,2.0,54,0.00,,,0.00,308,Wunderground v.1.15,2013-09-21 19:48:00,
2013-09-21 15:54:00,74.4,56.7,29.61,East,96,1.0,4.0,54,0.00,,,0.00,264,Wunderground v.1.15,2013-09-21 19:54:00,
2013-09-21 16:00:00,73.9,55.7,29.62,South,179,2.0,3.0,53,0.00,,,0.00,214,Wunderground v.1.15,2013-09-21 20:00:00,
2013-09-21 16:05:00,73.5,55.3,29.62,NNE,31,2.0,9.0,53,0.00,,,0.00,188,Wunderground v.1.15,2013-09-21 20:05:00,
2013-09-21 16:11:00,73.3,56.2,29.62,ESE,121,2.0,2.0,55,0.00,,,0.00,172,Wunderground v.1.15,2013-09-21 20:11:00,
2013-09-21 16:17:00,72.8,56.7,29.62,SE,137,1.0,2.0,57,0.00,,,0.00,162,Wunderground v.1.15,2013-09-21 20:17:00,
2013-09-21 16:22:00,72.5,56.4,29.62,East,93,1.0,2.0,57,0.00,,,0.00,155,Wunderground v.1.15,2013-09-21 20:22:00,
2013-09-21 16:28:00,72.3,57.2,29.62,ENE,61,1.0,2.0,59,0.00,,,0.00,149,Wunderground v.1.15,2013-09-21 20:28:00,
2013-09-21 16:34:00,71.8,57.2,29.61,ESE,115,1.0,2.0,60,0.00,,,0.00,134,Wunderground v.1.15,2013-09-21 20:34:00,
2013-09-21 16:39:00,71.8,57.2,29.61,SSW,213,1.0,2.0,60,0.00,,,0.00,127,Wunderground v.1.15,2013-09-21 20:39:00,
2013-09-21 16:45:00,71.6,57.4,29.61,SSE,167,0.0,4.0,61,0.00,,,0.00,105,Wunderground v.1.15,2013-09-21 20:45:00,
2013-09-21 16:51:00,71.5,58.2,29.61,SW,229,1.0,1.0,63,0.00,,,0.00,88,Wunderground v.1.15,2013-09-21 20:51:00,
2013-09-21 16:56:00,71.3,58.1,29.61,SSE,160,1.0,3.0,63,0.00,,,0.00,86,Wunderground v.1.15,2013-09-21 20:56:00,
2013-09-21 17:02:00,70.9,58.1,29.61,WSW,255,1.0,5.0,64,0.00,,,0.00,76,Wunderground v.1.15,2013-09-21 21:02:00,
2013-09-21 17:07:00,70.8,57.6,29.61,West,259,1.0,5.0,63,0.00,,,0.00,91,Wunderground v.1.15,2013-09-21 21:07:00,
2013-09-21 17:13:00,70.8,58.0,29.61,SSW,203,0.0,1.0,64,0.00,,,0.00,88,Wunderground v.1.15,2013-09-21 21:13:00,
2013-09-21 17:18:00,70.8,58.0,29.60,SW,219,0.0,4.0,64,0.00,,,0.00,90,Wunderground v.1.15,2013-09-21 21:18:00,
2013-09-21 17:24:00,70.8,58.0,29.60,North,0,1.0,1.0,64,0.00,,,0.00,84,Wunderground v.1.15,2013-09-21 21:24:00,
2013-09-21 17:30:00,70.6,58.7,29.59,North,0,0.0,0.0,66,0.00,,,0.00,76,Wunderground v.1.15,2013-09-21 21:30:00,
2013-09-21 17:35:00,70.4,58.9,29.59,North,0,0.0,0.0,67,0.00,,,0.00,69,Wunderground v.1.15,2013-09-21 21:35:00,
2013-09-21 17:41:00,70.1,59.0,29.59,West,269,0.0,0.0,68,0.00,,,0.00,63,Wunderground v.1.15,2013-09-21 21:41:00,
2013-09-21 17:47:00,69.8,58.8,29.59,South,174,0.0,0.0,68,0.00,,,0.00,60,Wunderground v.1.15,2013-09-21 21:47:00,
2013-09-21 17:52:00,69.6,59.0,29.59,SSE,159,0.0,0.0,69,0.00,,,0.00,51,Wunderground v.1.15,2013-09-21 21:52:00,
2013-09-21 17:57:00,69.4,58.4,29.59,East,91,0.0,9.0,68,0.00,,,0.00,44,Wunderground v.1.15,2013-09-21 21:57:00,
2013-09-21 18:03:00,69.4,58.0,29.58,SSE,153,1.0,3.0,67,0.00,,,0.00,37,Wunderground v.1.15,2013-09-21 22:03:00,
2013-09-21 18:09:00,69.4,58.4,29.58,SSW,212,0.0,3.0,68,0.00,,,0.00,33,Wunderground v.1.15,2013-09-21 22:09:00,
2013-09-21 18:15:00,69.3,58.3,29.58,SW,236,0.0,1.0,68,0.00,,,0.00,25,Wunderground v.1.15,2013-09-21 22:15:00,
2013-09-21 18:20:00,69.3,58.3,29.58,SW,233,0.0,0.0,68,0.00,,,0.00,21,Wunderground v.1.15,2013-09-21 22:20:00,
2013-09-21 18:26:00,69.1,58.1,29.58,SSE,154,0.0,2.0,68,0.00,,,0.00,16,Wunderground v.1.15,2013-09-21 22:26:00,
2013-09-21 18:32:00,68.9,58.3,29.58,SSE,161,0.0,1.0,69,0.00,,,0.00,5,Wunderground v.1.15,2013-09-21 22:32:00,
2013-09-21 18:37:00,68.8,58.6,29.58,WSW,243,1.0,3.0,70,0.00,,,0.00,7,Wunderground v.1.15,2013-09-21 22:37:00,
2013-09-21 18:43:00,68.8,58.6,29.58,SSW,203,0.0,2.0,70,0.00,,,0.00,0,Wunderground v.1.15,2013-09-21 22:43:00,
2013-09-21 18:49:00,68.9,58.7,29.59,SSE,167,0.0,2.0,70,0.00,,,0.00,0,Wunderground v.1.15,2013-09-21 22:49:00,
2013-09-21 18:55:00,68.6,58.4,29.59,ESE,104,0.0,3.0,70,0.00,,,0.00,0,Wunderground v.1.15,2013-09-21 22:55:00,
2013-09-21 19:00:00,68.4,58.6,29.58,North,355,0.0,0.0,71,0.00,,,0.00,0,Wunderground v.1.15,2013-09-21 23:00:00,
2013-09-21 19:05:00,68.4,58.6,29.58,SE,136,0.0,9.0,71,0.00,,,0.00,0,Wunderground v.1.15,2013-09-21 23:05:00,
2013-09-21 19:11:00,68.6,59.2,29.58,SE,130,0.0,0.0,72,0.00,,,0.00,0,Wunderground v.1.15,2013-09-21 23:11:00,
2013-09-21 19:17:00,69.4,58.8,29.58,SE,131,0.0,3.0,69,0.00,,,0.00,0,Wunderground v.1.15,2013-09-21 23:17:00,
2013-09-21 19:22:00,69.9,58.9,29.58,South,186,1.0,1.0,68,0.00,,,0.00,0,Wunderground v.1.15,2013-09-21 23:22:00,
2013-09-21 19:28:00,69.9,58.9,29.58,SSE,161,1.0,1.0,68,0.00,,,0.00,0,Wunderground v.1.15,2013-09-21 23:28:00,
2013-09-21 19:34:00,69.6,59.0,29.58,SSE,161,0.0,0.0,69,0.00,,,0.00,0,Wunderground v.1.15,2013-09-21 23:34:00,
2013-09-21 19:39:00,69.1,58.5,29.58,South,187,0.0,0.0,69,0.00,,,0.00,0,Wunderground v.1.15,2013-09-21 23:39:00,
2013-09-21 19:45:00,68.8,59.0,29.58,SSE,158,1.0,1.0,71,0.00,,,0.00,0,Wunderground v.1.15,2013-09-21 23:45:00,
2013-09-21 19:51:00,68.4,58.6,29.58,SSE,155,0.0,2.0,71,0.00,,,0.00,0,Wunderground v.1.15,2013-09-21 23:51:00,
2013-09-21 19:56:00,68.4,58.2,29.58,SSE,155,0.0,2.0,70,0.00,,,0.00,0,Wunderground v.1.15,2013-09-21 23:56:00,
2013-09-21 20:01:00,68.3,58.1,29.58,SSE,167,0.0,0.0,70,0.00,,,0.00,0,Wunderground v.1.15,2013-09-22 00:01:00,
2013-09-21 20:07:00,68.3,58.5,29.58,SSE,167,0.0,0.0,71,0.00,,,0.00,0,Wunderground v.1.15,2013-09-22 00:07:00,
2013-09-21 20:12:00,68.1,58.3,29.58,SSE,167,0.0,0.0,71,0.00,,,0.00,0,Wunderground v.1.15,2013-09-22 00:12:00,
2013-09-21 20:18:00,67.9,58.5,29.58,SSE,167,0.0,0.0,72,0.00,,,0.00,0,Wunderground v.1.15,2013-09-22 00:18:00,
2013-09-21 20:24:00,67.8,58.4,29.58,SSE,167,0.0,1.0,72,0.00,,,0.00,0,Wunderground v.1.15,2013-09-22 00:24:00,
2013-09-21 20:30:00,67.6,58.6,29.58,South,190,0.0,0.0,73,0.00,,,0.00,0,Wunderground v.1.15,2013-09-22 00:30:00,
2013-09-21 20:36:00,67.4,58.4,29.58,South,190,0.0,0.0,73,0.00,,,0.00,0,Wunderground v.1.15,2013-09-22 00:36:00,
2013-09-21 20:41:00,67.3,58.3,29.58,South,190,0.0,1.0,73,0.00,,,0.00,0,Wunderground v.1.15,2013-09-22 00:41:00,
2013-09-21 20:47:00,67.3,58.3,29.57,South,190,0.0,1.0,73,0.00,,,0.00,0,Wunderground v.1.15,2013-09-22 00:47:00,
2013-09-21 20:52:00,67.4,58.4,29.57,SE,131,0.0,0.0,73,0.00,,,0.00,0,Wunderground v.1.15,2013-09-22 00:52:00,
2013-09-21 20:58:00,67.8,58.1,29.57,SE,124,0.0,1.0,71,0.00,,,0.00,0,Wunderground v.1.15,2013-09-22 00:58:00,
2013-09-21 21:04:00,68.1,57.9,29.57,SSW,195,0.0,1.0,70,0.00,,,0.00,0,Wunderground v.1.15,2013-09-22 01:04:00,
2013-09-21 21:10:00,68.4,57.8,29.57,ESE,115,1.0,1.0,69,0.00,,,0.00,0,Wunderground v.1.15,2013-09-22 01:10:00,
2013-09-21 21:15:00,68.6,57.6,29.56,ESE,110,1.0,2.0,68,0.00,,,0.00,0,Wunderground v.1.15,2013-09-22 01:15:00,
2013-09-21 21:20:00,68.8,57.8,29.56,ESE,110,1.0,1.0,68,0.00,,,0.00,0,Wunderground v.1.15,2013-09-22 01:20:00,
2013-09-21 21:26:00,68.9,58.3,29.56,SSW,210,1.0,2.0,69,0.00,,,0.00,0,Wunderground v.1.15,2013-09-22 01:26:00,
2013-09-21 21:32:00,68.6,59.6,29.57,SSE,153,1.0,1.0,73,0.00,,,0.01,0,Wunderground v.1.15,2013-09-22 01:32:00,
2013-09-21 21:37:00,68.3,60.4,29.57,SSE,155,1.0,1.0,76,0.26,,,0.03,0,Wunderground v.1.15,2013-09-22 01:37:00,
2013-09-21 21:43:00,67.4,61.0,29.57,South,172,0.0,3.0,80,0.08,,,0.03,0,Wunderground v.1.15,2013-09-22 01:43:00,
2013-09-21 21:49:00,66.6,60.9,29.57,South,178,0.0,3.0,82,0.08,,,0.04,0,Wunderground v.1.15,2013-09-22 01:49:00,
2013-09-21 21:54:00,66.1,60.8,29.57,South,178,0.0,0.0,83,0.06,,,0.05,0,Wunderground v.1.15,2013-09-22 01:54:00,
2013-09-21 22:00:00,65.6,61.0,29.57,South,178,0.0,0.0,85,0.06,,,0.05,0,Wunderground v.1.15,2013-09-22 02:00:00,
2013-09-21 22:05:00,65.3,60.7,29.57,South,178,0.0,0.0,85,0.05,,,0.05,0,Wunderground v.1.15,2013-09-22 02:05:00,
2013-09-21 22:11:00,65.2,60.9,29.57,South,178,0.0,0.0,86,0.04,,,0.06,0,Wunderground v.1.15,2013-09-22 02:11:00,
2013-09-21 22:16:00,65.0,61.0,29.58,South,178,0.0,0.0,87,0.07,,,0.07,0,Wunderground v.1.15,2013-09-22 02:16:00,
2013-09-21 22:22:00,64.7,60.7,29.58,SE,127,0.0,0.0,87,0.07,,,0.07,0,Wunderground v.1.15,2013-09-22 02:22:00,
2013-09-21 22:28:00,64.5,60.9,29.58,SE,127,0.0,0.0,88,0.06,,,0.08,0,Wunderground v.1.15,2013-09-22 02:28:00,
2013-09-21 22:33:00,64.5,60.9,29.56,SE,127,0.0,2.0,88,0.06,,,0.08,0,Wunderground v.1.15,2013-09-22 02:33:00,
2013-09-21 22:39:00,64.3,61.0,29.56,SE,131,0.0,2.0,89,0.04,,,0.08,0,Wunderground v.1.15,2013-09-22 02:39:00,
2013-09-21 22:45:00,64.0,60.7,29.55,SE,133,0.0,0.0,89,0.00,,,0.08,0,Wunderground v.1.15,2013-09-22 02:45:00,
2013-09-21 22:50:00,63.9,60.6,29.55,SE,133,0.0,3.0,89,0.00,,,0.08,0,Wunderground v.1.15,2013-09-22 02:50:00,
2013-09-21 22:56:00,63.7,60.4,29.55,SE,133,0.0,3.0,89,0.00,,,0.08,0,Wunderground v.1.15,2013-09-22 02:56:00,
2013-09-21 23:02:00,63.5,60.2,29.55,East,94,1.0,2.0,89,0.00,,,0.09,0,Wunderground v.1.15,2013-09-22 03:02:00,
2013-09-21 23:07:00,63.4,60.1,29.55,South,179,1.0,2.0,89,0.00,,,0.09,0,Wunderground v.1.15,2013-09-22 03:07:00,
2013-09-21 23:13:00,63.2,60.2,29.55,SSE,153,1.0,2.0,90,0.00,,,0.09,0,Wunderground v.1.15,2013-09-22 03:13:00,
2013-09-21 23:19:00,63.2,60.2,29.54,ESE,113,1.0,2.0,90,0.00,,,0.09,0,Wunderground v.1.15,2013-09-22 03:19:00,
2013-09-21 23:24:00,63.2,60.2,29.54,East,98,1.0,2.0,90,0.00,,,0.09,0,Wunderground v.1.15,2013-09-22 03:24:00,
2013-09-21 23:30:00,63.2,60.2,29.54,South,191,1.0,1.0,90,0.00,,,0.09,0,Wunderground v.1.15,2013-09-22 03:30:00,
2013-09-21 23:36:00,63.2,60.2,29.54,SSE,155,1.0,3.0,90,0.00,,,0.09,0,Wunderground v.1.15,2013-09-22 03:36:00,
2013-09-21 23:41:00,63.4,60.4,29.54,ESE,116,1.0,1.0,90,0.00,,,0.09,0,Wunderground v.1.15,2013-09-22 03:41:00,
2013-09-21 23:47:00,63.4,60.1,29.53,SSW,212,1.0,6.0,89,0.00,,,0.09,0,Wunderground v.1.15,2013-09-22 03:47:00,
2013-09-21 23:53:00,63.4,60.4,29.53,East,91,0.0,2.0,90,0.00,,,0.09,0,Wunderground v.1.15,2013-09-22 03:53:00,
2013-09-21 23:58:00,63.5,60.2,29.53,ESE,103,1.0,2.0,89,0.00,,,0.09,0,Wunderground v.1.15,2013-09-22 03:58:00,